sensor_id;sensor_type;location;lat;lon;timestamp;pressure;altitude;pressure_sealevel;temperature;humidity
30873;BME280;17579;42.690;2.586;2022-08-11T00:03:16;97150.97;;;28.11;49.96
30873;BME280;17579;42.690;2.586;2022-08-11T00:05:50;97147.91;;;28.03;49.82
30873;BME280;17579;42.690;2.586;2022-08-11T00:08:28;97139.47;;;27.99;50.11
30873;BME280;17579;42.690;2.586;2022-08-11T00:11:02;97137.03;;;28.03;50.23
30873;BME280;17579;42.690;2.586;2022-08-11T00:13:38;97150.38;;;28.04;50.29
30873;BME280;17579;42.690;2.586;2022-08-11T00:16:13;97152.53;;;28.02;49.78
30873;BME280;17579;42.690;2.586;2022-08-11T00:18:41;97151.47;;;28.03;50.12
30873;BME280;17579;42.690;2.586;2022-08-11T00:21:08;97147.66;;;28.04;50.37
30873;BME280;17579;42.690;2.586;2022-08-11T00:23:40;97150.63;;;28.03;50.11
30873;BME280;17579;42.690;2.586;2022-08-11T00:26:07;97150.38;;;28.04;50.63
30873;BME280;17579;42.690;2.586;2022-08-11T00:28:34;97155.53;;;28.00;50.32
30873;BME280;17579;42.690;2.586;2022-08-11T00:31:04;97161.75;;;28.01;50.17
30873;BME280;17579;42.690;2.586;2022-08-11T00:33:42;97153.56;;;27.96;50.28
30873;BME280;17579;42.690;2.586;2022-08-11T00:36:29;97150.25;;;27.89;50.45
30873;BME280;17579;42.690;2.586;2022-08-11T00:39:13;97147.81;;;27.92;50.87
30873;BME280;17579;42.690;2.586;2022-08-11T00:47:23;97138.78;;;27.87;50.16
30873;BME280;17579;42.690;2.586;2022-08-11T00:50:19;97128.44;;;27.83;50.21
30873;BME280;17579;42.690;2.586;2022-08-11T00:53:13;97131.16;;;27.83;50.58
30873;BME280;17579;42.690;2.586;2022-08-11T01:02:18;97136.94;;;27.60;50.57
30873;BME280;17579;42.690;2.586;2022-08-11T01:05:13;97134.72;;;27.57;51.38
30873;BME280;17579;42.690;2.586;2022-08-11T01:11:00;97139.09;;;27.58;51.13
30873;BME280;17579;42.690;2.586;2022-08-11T01:14:04;97137.44;;;27.57;51.23
30873;BME280;17579;42.690;2.586;2022-08-11T01:16:51;97139.41;;;27.61;51.54
30873;BME280;17579;42.690;2.586;2022-08-11T01:22:58;97138.28;;;27.57;51.50
30873;BME280;17579;42.690;2.586;2022-08-11T01:28:37;97133.03;;;27.51;51.36
30873;BME280;17579;42.690;2.586;2022-08-11T01:34:22;97128.94;;;27.48;51.75
30873;BME280;17579;42.690;2.586;2022-08-11T01:40:14;97125.09;;;27.44;51.92
30873;BME280;17579;42.690;2.586;2022-08-11T01:49:31;97138.13;;;27.42;51.63
30873;BME280;17579;42.690;2.586;2022-08-11T01:52:20;97134.53;;;27.36;52.27
30873;BME280;17579;42.690;2.586;2022-08-11T01:55:17;97132.88;;;27.35;52.07
30873;BME280;17579;42.690;2.586;2022-08-11T02:03:54;97143.56;;;27.42;52.44
30873;BME280;17579;42.690;2.586;2022-08-11T02:09:59;97140.22;;;27.35;52.59
30873;BME280;17579;42.690;2.586;2022-08-11T02:12:53;97141.91;;;27.41;52.13
30873;BME280;17579;42.690;2.586;2022-08-11T02:15:38;97150.28;;;27.34;52.42
30873;BME280;17579;42.690;2.586;2022-08-11T02:18:32;97148.84;;;27.31;52.37
30873;BME280;17579;42.690;2.586;2022-08-11T02:21:59;97155.56;;;27.24;52.42
30873;BME280;17579;42.690;2.586;2022-08-11T02:24:33;97160.16;;;27.23;53.00
30873;BME280;17579;42.690;2.586;2022-08-11T02:27:06;97165.22;;;27.14;53.06
30873;BME280;17579;42.690;2.586;2022-08-11T02:29:46;97161.38;;;27.10;53.24
30873;BME280;17579;42.690;2.586;2022-08-11T02:32:35;97162.44;;;27.09;53.04
30873;BME280;17579;42.690;2.586;2022-08-11T02:35:17;97157.63;;;27.17;53.01
30873;BME280;17579;42.690;2.586;2022-08-11T02:38:25;97159.44;;;27.06;53.06
30873;BME280;17579;42.690;2.586;2022-08-11T02:46:52;97153.94;;;27.01;52.70
30873;BME280;17579;42.690;2.586;2022-08-11T02:49:46;97155.28;;;26.98;53.00
30873;BME280;17579;42.690;2.586;2022-08-11T02:55:32;97148.13;;;26.92;53.24
30873;BME280;17579;42.690;2.586;2022-08-11T02:58:25;97152.78;;;26.96;53.28
30873;BME280;17579;42.690;2.586;2022-08-11T03:01:26;97147.06;;;26.93;53.21
30873;BME280;17579;42.690;2.586;2022-08-11T03:04:12;97151.47;;;26.99;53.66
30873;BME280;17579;42.690;2.586;2022-08-11T03:22:50;97154.84;;;26.84;53.14
30873;BME280;17579;42.690;2.586;2022-08-11T03:25:37;97169.47;;;26.83;53.42
30873;BME280;17579;42.690;2.586;2022-08-11T03:28:32;97162.66;;;26.80;53.58
30873;BME280;17579;42.690;2.586;2022-08-11T03:37:18;97158.38;;;26.68;53.74
30873;BME280;17579;42.690;2.586;2022-08-11T03:43:36;97168.66;;;26.66;53.75
30873;BME280;17579;42.690;2.586;2022-08-11T03:46:41;97164.06;;;26.66;53.53
30873;BME280;17579;42.690;2.586;2022-08-11T03:49:35;97161.03;;;26.62;54.01
30873;BME280;17579;42.690;2.586;2022-08-11T04:07:12;97176.22;;;26.63;54.43
30873;BME280;17579;42.690;2.586;2022-08-11T04:25:17;97185.47;;;26.62;55.41
30873;BME280;17579;42.690;2.586;2022-08-11T04:28:10;97183.56;;;26.63;55.27
30873;BME280;17579;42.690;2.586;2022-08-11T04:34:17;97184.38;;;26.63;55.30
30873;BME280;17579;42.690;2.586;2022-08-11T04:40:08;97187.59;;;26.60;55.69
30873;BME280;17579;42.690;2.586;2022-08-11T04:46:05;97193.84;;;26.61;55.53
30873;BME280;17579;42.690;2.586;2022-08-11T04:49:12;97197.88;;;26.58;56.01
30873;BME280;17579;42.690;2.586;2022-08-11T04:52:15;97193.34;;;26.64;56.12
30873;BME280;17579;42.690;2.586;2022-08-11T04:58:20;97202.72;;;26.73;56.08
30873;BME280;17579;42.690;2.586;2022-08-11T05:04:20;97204.44;;;26.79;56.22
30873;BME280;17579;42.690;2.586;2022-08-11T05:13:08;97210.31;;;26.93;56.69
30873;BME280;17579;42.690;2.586;2022-08-11T05:16:09;97205.63;;;26.89;56.73
30873;BME280;17579;42.690;2.586;2022-08-11T05:18:50;97204.38;;;26.96;56.85
30873;BME280;17579;42.690;2.586;2022-08-11T05:21:56;97207.03;;;26.91;56.78
30873;BME280;17579;42.690;2.586;2022-08-11T05:24:49;97207.59;;;26.93;56.91
30873;BME280;17579;42.690;2.586;2022-08-11T05:27:38;97208.72;;;26.97;56.94
30873;BME280;17579;42.690;2.586;2022-08-11T05:30:26;97213.91;;;26.99;56.72
30873;BME280;17579;42.690;2.586;2022-08-11T05:33:07;97209.88;;;27.02;56.72
30873;BME280;17579;42.690;2.586;2022-08-11T05:36:16;97216.88;;;26.97;56.79
30873;BME280;17579;42.690;2.586;2022-08-11T05:39:05;97225.66;;;27.05;56.45
30873;BME280;17579;42.690;2.586;2022-08-11T05:42:07;97225.41;;;27.06;56.89
30873;BME280;17579;42.690;2.586;2022-08-11T05:44:47;97219.84;;;27.18;57.15
30873;BME280;17579;42.690;2.586;2022-08-11T05:47:26;97219.09;;;27.23;57.70
30873;BME280;17579;42.690;2.586;2022-08-11T05:50:08;97214.81;;;27.27;57.48
30873;BME280;17579;42.690;2.586;2022-08-11T05:52:46;97224.41;;;27.35;57.64
30873;BME280;17579;42.690;2.586;2022-08-11T05:55:41;97217.91;;;27.36;57.71
30873;BME280;17579;42.690;2.586;2022-08-11T05:58:19;97219.91;;;27.45;57.78
30873;BME280;17579;42.690;2.586;2022-08-11T06:01:03;97213.91;;;27.43;57.78
30873;BME280;17579;42.690;2.586;2022-08-11T06:03:43;97224.72;;;27.65;57.66
30873;BME280;17579;42.690;2.586;2022-08-11T06:06:42;97227.16;;;27.89;57.13
30873;BME280;17579;42.690;2.586;2022-08-11T06:09:45;97208.91;;;28.12;56.90
30873;BME280;17579;42.690;2.586;2022-08-11T06:12:23;97211.81;;;28.38;56.44
30873;BME280;17579;42.690;2.586;2022-08-11T06:14:57;97216.31;;;28.59;56.05
30873;BME280;17579;42.690;2.586;2022-08-11T06:17:28;97209.94;;;28.81;55.80
30873;BME280;17579;42.690;2.586;2022-08-11T06:20:05;97207.81;;;28.93;55.44
30873;BME280;17579;42.690;2.586;2022-08-11T06:22:34;97214.13;;;29.09;54.94
30873;BME280;17579;42.690;2.586;2022-08-11T06:25:01;97207.13;;;29.24;54.58
30873;BME280;17579;42.690;2.586;2022-08-11T06:27:33;97207.72;;;29.36;54.39
30873;BME280;17579;42.690;2.586;2022-08-11T06:30:00;97208.88;;;29.50;53.75
30873;BME280;17579;42.690;2.586;2022-08-11T06:32:30;97218.72;;;29.62;53.65
30873;BME280;17579;42.690;2.586;2022-08-11T06:35:16;97211.88;;;29.59;53.62
30873;BME280;17579;42.690;2.586;2022-08-11T06:38:05;97220.00;;;29.38;53.27
30873;BME280;17579;42.690;2.586;2022-08-11T06:41:02;97214.25;;;29.30;53.74
30873;BME280;17579;42.690;2.586;2022-08-11T06:47:04;97217.88;;;29.56;52.90
30873;BME280;17579;42.690;2.586;2022-08-11T06:49:44;97225.22;;;29.50;52.98
30873;BME280;17579;42.690;2.586;2022-08-11T06:52:35;97226.28;;;29.44;53.38
30873;BME280;17579;42.690;2.586;2022-08-11T06:55:10;97227.06;;;29.34;53.37
30873;BME280;17579;42.690;2.586;2022-08-11T06:57:38;97220.16;;;29.16;53.46
30873;BME280;17579;42.690;2.586;2022-08-11T07:00:23;97222.25;;;28.99;53.55
30873;BME280;17579;42.690;2.586;2022-08-11T07:03:09;97231.47;;;28.88;53.71
30873;BME280;17579;42.690;2.586;2022-08-11T07:06:04;97233.91;;;28.84;53.61
30873;BME280;17579;42.690;2.586;2022-08-11T07:14:52;97238.09;;;28.59;54.60
30873;BME280;17579;42.690;2.586;2022-08-11T07:17:37;97243.19;;;28.50;54.91
30873;BME280;17579;42.690;2.586;2022-08-11T07:20:06;97238.03;;;28.54;54.74
30873;BME280;17579;42.690;2.586;2022-08-11T07:22:55;97243.19;;;28.50;54.69
30873;BME280;17579;42.690;2.586;2022-08-11T07:25:38;97242.88;;;28.47;55.23
30873;BME280;17579;42.690;2.586;2022-08-11T07:28:22;97252.94;;;28.46;54.77
30873;BME280;17579;42.690;2.586;2022-08-11T07:31:06;97253.22;;;28.45;54.54
30873;BME280;17579;42.690;2.586;2022-08-11T07:33:55;97256.41;;;28.37;55.06
30873;BME280;17579;42.690;2.586;2022-08-11T07:36:27;97259.47;;;28.45;54.92
30873;BME280;17579;42.690;2.586;2022-08-11T07:38:55;97262.72;;;28.42;55.62
30873;BME280;17579;42.690;2.586;2022-08-11T07:41:23;97259.34;;;28.30;55.46
30873;BME280;17579;42.690;2.586;2022-08-11T07:43:52;97263.63;;;28.21;55.61
30873;BME280;17579;42.690;2.586;2022-08-11T07:46:20;97266.53;;;28.14;55.78
30873;BME280;17579;42.690;2.586;2022-08-11T07:49:02;97269.53;;;28.12;55.71
30873;BME280;17579;42.690;2.586;2022-08-11T07:51:41;97264.41;;;28.16;55.84
30873;BME280;17579;42.690;2.586;2022-08-11T07:54:20;97266.34;;;28.21;55.25
30873;BME280;17579;42.690;2.586;2022-08-11T07:56:46;97275.06;;;28.23;55.74
30873;BME280;17579;42.690;2.586;2022-08-11T07:59:12;97268.34;;;28.30;55.75
30873;BME280;17579;42.690;2.586;2022-08-11T08:01:50;97274.38;;;28.38;55.51
30873;BME280;17579;42.690;2.586;2022-08-11T08:04:28;97271.41;;;28.44;55.06
30873;BME280;17579;42.690;2.586;2022-08-11T08:07:06;97258.72;;;28.55;55.21
30873;BME280;17579;42.690;2.586;2022-08-11T08:09:44;97268.13;;;28.75;55.21
30873;BME280;17579;42.690;2.586;2022-08-11T08:12:23;97263.41;;;29.08;54.49
30873;BME280;17579;42.690;2.586;2022-08-11T08:15:06;97257.41;;;29.69;53.48
30873;BME280;17579;42.690;2.586;2022-08-11T08:17:44;97264.78;;;29.73;52.39
30873;BME280;17579;42.690;2.586;2022-08-11T08:23:00;97267.69;;;29.41;53.48
30873;BME280;17579;42.690;2.586;2022-08-11T08:25:33;97266.28;;;29.33;53.69
30873;BME280;17579;42.690;2.586;2022-08-11T08:28:02;97273.66;;;29.33;53.12
30873;BME280;17579;42.690;2.586;2022-08-11T08:30:30;97272.03;;;29.37;53.61
30873;BME280;17579;42.690;2.586;2022-08-11T08:33:08;97266.97;;;29.77;52.97
30873;BME280;17579;42.690;2.586;2022-08-11T08:35:35;97260.78;;;30.12;52.65
30873;BME280;17579;42.690;2.586;2022-08-11T08:38:02;97266.81;;;30.14;52.03
30873;BME280;17579;42.690;2.586;2022-08-11T08:40:28;97264.31;;;29.92;52.41
30873;BME280;17579;42.690;2.586;2022-08-11T08:43:02;97256.03;;;29.66;52.63
30873;BME280;17579;42.690;2.586;2022-08-11T08:45:33;97265.63;;;29.74;52.98
30873;BME280;17579;42.690;2.586;2022-08-11T08:48:12;97271.56;;;29.61;52.97
30873;BME280;17579;42.690;2.586;2022-08-11T08:50:44;97272.09;;;29.52;53.35
30873;BME280;17579;42.690;2.586;2022-08-11T08:53:27;97268.56;;;29.57;53.38
30873;BME280;17579;42.690;2.586;2022-08-11T08:55:57;97262.88;;;29.69;53.24
30873;BME280;17579;42.690;2.586;2022-08-11T08:58:25;97259.94;;;29.91;53.25
30873;BME280;17579;42.690;2.586;2022-08-11T09:00:53;97270.06;;;30.06;52.58
30873;BME280;17579;42.690;2.586;2022-08-11T09:03:20;97270.91;;;30.12;52.51
30873;BME280;17579;42.690;2.586;2022-08-11T09:05:47;97264.88;;;30.25;52.75
30873;BME280;17579;42.690;2.586;2022-08-11T09:08:16;97263.81;;;30.57;52.27
30873;BME280;17579;42.690;2.586;2022-08-11T09:10:45;97263.22;;;30.91;51.24
30873;BME280;17579;42.690;2.586;2022-08-11T09:13:13;97259.38;;;31.07;50.62
30873;BME280;17579;42.690;2.586;2022-08-11T09:15:40;97263.75;;;30.93;49.58
30873;BME280;17579;42.690;2.586;2022-08-11T09:18:06;97260.25;;;30.67;50.63
30873;BME280;17579;42.690;2.586;2022-08-11T09:20:36;97267.66;;;30.56;50.59
30873;BME280;17579;42.690;2.586;2022-08-11T09:23:05;97265.47;;;30.58;51.02
30873;BME280;17579;42.690;2.586;2022-08-11T09:25:44;97263.28;;;30.70;51.00
30873;BME280;17579;42.690;2.586;2022-08-11T09:28:23;97257.00;;;30.65;50.03
30873;BME280;17579;42.690;2.586;2022-08-11T09:30:51;97258.63;;;30.61;50.39
30873;BME280;17579;42.690;2.586;2022-08-11T09:33:21;97264.63;;;30.63;50.11
30873;BME280;17579;42.690;2.586;2022-08-11T09:35:51;97264.91;;;30.61;50.65
30873;BME280;17579;42.690;2.586;2022-08-11T09:38:19;97256.47;;;30.47;50.90
30873;BME280;17579;42.690;2.586;2022-08-11T09:41:01;97262.44;;;30.39;51.00
30873;BME280;17579;42.690;2.586;2022-08-11T09:43:30;97255.34;;;30.33;50.54
30873;BME280;17579;42.690;2.586;2022-08-11T09:46:10;97262.72;;;30.27;50.88
30873;BME280;17579;42.690;2.586;2022-08-11T09:48:41;97252.88;;;30.31;51.58
30873;BME280;17579;42.690;2.586;2022-08-11T09:51:07;97258.38;;;30.47;51.40
30873;BME280;17579;42.690;2.586;2022-08-11T09:53:36;97252.09;;;30.56;50.63
30873;BME280;17579;42.690;2.586;2022-08-11T09:56:05;97251.25;;;30.61;50.24
30873;BME280;17579;42.690;2.586;2022-08-11T09:58:43;97249.06;;;30.73;50.04
30873;BME280;17579;42.690;2.586;2022-08-11T10:01:09;97248.78;;;30.75;50.18
30873;BME280;17579;42.690;2.586;2022-08-11T10:06:30;97244.09;;;30.86;50.02
30873;BME280;17579;42.690;2.586;2022-08-11T10:09:11;97249.03;;;30.84;49.80
30873;BME280;17579;42.690;2.586;2022-08-11T10:11:38;97246.34;;;30.73;49.91
30873;BME280;17579;42.690;2.586;2022-08-11T10:14:06;97246.06;;;30.70;50.22
30873;BME280;17579;42.690;2.586;2022-08-11T10:16:44;97247.41;;;30.83;50.35
30873;BME280;17579;42.690;2.586;2022-08-11T10:19:11;97235.34;;;31.04;49.79
30873;BME280;17579;42.690;2.586;2022-08-11T10:21:40;97231.47;;;31.21;49.26
30873;BME280;17579;42.690;2.586;2022-08-11T10:24:08;97236.84;;;31.41;48.19
30873;BME280;17579;42.690;2.586;2022-08-11T10:26:48;97237.91;;;31.46;47.28
30873;BME280;17579;42.690;2.586;2022-08-11T10:29:22;97234.66;;;31.43;48.13
30873;BME280;17579;42.690;2.586;2022-08-11T10:32:00;97230.19;;;31.63;47.85
30873;BME280;17579;42.690;2.586;2022-08-11T10:34:38;97218.97;;;31.70;47.34
30873;BME280;17579;42.690;2.586;2022-08-11T10:37:05;97233.41;;;31.75;46.45
30873;BME280;17579;42.690;2.586;2022-08-11T10:39:33;97222.75;;;31.74;46.90
30873;BME280;17579;42.690;2.586;2022-08-11T10:42:00;97220.25;;;31.77;46.39
30873;BME280;17579;42.690;2.586;2022-08-11T10:44:52;97216.44;;;31.78;46.65
30873;BME280;17579;42.690;2.586;2022-08-11T10:47:20;97220.19;;;31.88;46.57
30873;BME280;17579;42.690;2.586;2022-08-11T10:50:02;97221.75;;;31.99;46.23
30873;BME280;17579;42.690;2.586;2022-08-11T10:52:41;97221.66;;;32.09;45.58
30873;BME280;17579;42.690;2.586;2022-08-11T10:55:24;97220.06;;;32.08;45.82
30873;BME280;17579;42.690;2.586;2022-08-11T10:58:02;97219.78;;;32.10;46.06
30873;BME280;17579;42.690;2.586;2022-08-11T11:00:40;97209.91;;;32.14;45.71
30873;BME280;17579;42.690;2.586;2022-08-11T11:03:06;97215.25;;;32.29;46.23
30873;BME280;17579;42.690;2.586;2022-08-11T11:05:32;97210.50;;;32.40;45.45
30873;BME280;17579;42.690;2.586;2022-08-11T11:08:13;97209.22;;;32.33;45.57
30873;BME280;17579;42.690;2.586;2022-08-11T11:10:51;97205.31;;;32.39;45.07
30873;BME280;17579;42.690;2.586;2022-08-11T11:13:19;97200.63;;;32.44;45.16
30873;BME280;17579;42.690;2.586;2022-08-11T11:15:58;97196.75;;;32.45;44.89
30873;BME280;17579;42.690;2.586;2022-08-11T11:18:35;97195.06;;;32.50;44.66
30873;BME280;17579;42.690;2.586;2022-08-11T11:21:08;97197.25;;;32.53;45.17
30873;BME280;17579;42.690;2.586;2022-08-11T11:23:46;97199.31;;;32.66;45.04
30873;BME280;17579;42.690;2.586;2022-08-11T11:26:38;97198.75;;;32.69;44.70
30873;BME280;17579;42.690;2.586;2022-08-11T11:32:32;97193.78;;;32.71;44.69
30873;BME280;17579;42.690;2.586;2022-08-11T11:35:12;97187.91;;;32.83;44.32
30873;BME280;17579;42.690;2.586;2022-08-11T11:37:45;97187.50;;;32.95;43.87
30873;BME280;17579;42.690;2.586;2022-08-11T11:40:13;97185.22;;;33.02;43.56
30873;BME280;17579;42.690;2.586;2022-08-11T11:42:43;97189.66;;;32.98;43.86
30873;BME280;17579;42.690;2.586;2022-08-11T11:45:10;97186.41;;;32.96;43.72
30873;BME280;17579;42.690;2.586;2022-08-11T11:47:39;97188.09;;;32.92;43.74
30873;BME280;17579;42.690;2.586;2022-08-11T11:50:08;97182.91;;;32.90;43.91
30873;BME280;17579;42.690;2.586;2022-08-11T11:52:35;97175.78;;;32.89;43.88
30873;BME280;17579;42.690;2.586;2022-08-11T11:55:03;97181.72;;;32.96;43.60
30873;BME280;17579;42.690;2.586;2022-08-11T11:57:29;97187.66;;;33.04;43.50
30873;BME280;17579;42.690;2.586;2022-08-11T12:00:11;97183.38;;;32.97;43.59
30873;BME280;17579;42.690;2.586;2022-08-11T12:02:49;97179.84;;;33.16;43.34
30873;BME280;17579;42.690;2.586;2022-08-11T12:05:17;97180.16;;;33.14;43.40
30873;BME280;17579;42.690;2.586;2022-08-11T12:07:44;97177.91;;;33.16;43.62
30873;BME280;17579;42.690;2.586;2022-08-11T12:10:22;97180.63;;;33.22;43.49
30873;BME280;17579;42.690;2.586;2022-08-11T12:12:48;97175.69;;;33.19;43.52
30873;BME280;17579;42.690;2.586;2022-08-11T12:15:26;97175.53;;;33.10;43.31
30873;BME280;17579;42.690;2.586;2022-08-11T12:17:51;97180.94;;;32.96;43.91
30873;BME280;17579;42.690;2.586;2022-08-11T12:20:18;97175.44;;;32.96;44.42
30873;BME280;17579;42.690;2.586;2022-08-11T12:22:46;97179.44;;;33.04;44.06
30873;BME280;17579;42.690;2.586;2022-08-11T12:25:32;97178.84;;;33.07;44.39
30873;BME280;17579;42.690;2.586;2022-08-11T12:28:10;97190.91;;;33.06;43.99
30873;BME280;17579;42.690;2.586;2022-08-11T12:30:37;97187.16;;;33.02;44.60
30873;BME280;17579;42.690;2.586;2022-08-11T12:33:06;97179.16;;;33.05;44.15
30873;BME280;17579;42.690;2.586;2022-08-11T12:35:33;97177.75;;;33.08;44.36
30873;BME280;17579;42.690;2.586;2022-08-11T12:38:00;97183.25;;;33.08;44.64
30873;BME280;17579;42.690;2.586;2022-08-11T12:40:28;97180.72;;;33.11;44.69
30873;BME280;17579;42.690;2.586;2022-08-11T12:43:08;97173.09;;;33.08;44.83
30873;BME280;17579;42.690;2.586;2022-08-11T12:45:48;97166.06;;;33.21;44.82
30873;BME280;17579;42.690;2.586;2022-08-11T12:48:20;97166.63;;;33.23;44.90
30873;BME280;17579;42.690;2.586;2022-08-11T12:51:06;97166.56;;;33.47;44.25
30873;BME280;17579;42.690;2.586;2022-08-11T12:53:52;97160.41;;;33.56;44.15
30873;BME280;17579;42.690;2.586;2022-08-11T12:56:20;97169.31;;;33.86;43.69
30873;BME280;17579;42.690;2.586;2022-08-11T12:59:00;97170.56;;;33.93;43.21
30873;BME280;17579;42.690;2.586;2022-08-11T13:01:38;97157.56;;;34.32;43.04
30873;BME280;17579;42.690;2.586;2022-08-11T13:04:16;97150.69;;;34.62;42.11
30873;BME280;17579;42.690;2.586;2022-08-11T13:06:53;97157.66;;;34.87;41.86
30873;BME280;17579;42.690;2.586;2022-08-11T13:09:19;97156.00;;;35.14;41.63
30873;BME280;17579;42.690;2.586;2022-08-11T13:11:45;97147.63;;;35.47;41.08
30873;BME280;17579;42.690;2.586;2022-08-11T13:14:27;97150.31;;;35.61;40.90
30873;BME280;17579;42.690;2.586;2022-08-11T13:16:53;97143.47;;;35.95;40.60
30873;BME280;17579;42.690;2.586;2022-08-11T13:19:32;97131.63;;;35.95;40.10
30873;BME280;17579;42.690;2.586;2022-08-11T13:22:00;97140.97;;;35.85;40.26
30873;BME280;17579;42.690;2.586;2022-08-11T13:24:27;97134.16;;;35.82;39.79
30873;BME280;17579;42.690;2.586;2022-08-11T13:26:53;97124.00;;;35.92;39.98
30873;BME280;17579;42.690;2.586;2022-08-11T13:29:21;97133.84;;;36.06;39.45
30873;BME280;17579;42.690;2.586;2022-08-11T13:31:49;97132.09;;;35.88;39.67
30873;BME280;17579;42.690;2.586;2022-08-11T13:34:16;97125.91;;;35.82;40.27
30873;BME280;17579;42.690;2.586;2022-08-11T13:36:43;97127.88;;;36.13;39.79
30873;BME280;17579;42.690;2.586;2022-08-11T13:39:10;97113.94;;;36.10;39.51
30873;BME280;17579;42.690;2.586;2022-08-11T13:41:39;97119.72;;;35.99;39.88
30873;BME280;17579;42.690;2.586;2022-08-11T13:44:08;97121.00;;;36.02;39.84
30873;BME280;17579;42.690;2.586;2022-08-11T13:46:34;97114.56;;;36.06;39.63
30873;BME280;17579;42.690;2.586;2022-08-11T13:49:01;97111.19;;;36.10;39.38
30873;BME280;17579;42.690;2.586;2022-08-11T13:51:28;97106.09;;;36.03;39.91
30873;BME280;17579;42.690;2.586;2022-08-11T13:53:59;97099.91;;;36.20;39.35
30873;BME280;17579;42.690;2.586;2022-08-11T13:56:26;97114.94;;;36.14;39.53
30873;BME280;17579;42.690;2.586;2022-08-11T13:58:54;97113.84;;;35.92;39.92
30873;BME280;17579;42.690;2.586;2022-08-11T14:01:25;97109.44;;;35.91;39.74
30873;BME280;17579;42.690;2.586;2022-08-11T14:03:52;97099.25;;;35.92;40.00
30873;BME280;17579;42.690;2.586;2022-08-11T14:06:19;97102.81;;;35.92;39.90
30873;BME280;17579;42.690;2.586;2022-08-11T14:08:46;97107.78;;;35.67;40.05
30873;BME280;17579;42.690;2.586;2022-08-11T14:11:15;97107.19;;;35.70;40.26
30873;BME280;17579;42.690;2.586;2022-08-11T14:14:03;97096.78;;;35.67;40.43
30873;BME280;17579;42.690;2.586;2022-08-11T14:16:34;97085.53;;;35.55;39.98
30873;BME280;17579;42.690;2.586;2022-08-11T14:19:06;97085.59;;;35.41;40.53
30873;BME280;17579;42.690;2.586;2022-08-11T14:21:37;97079.16;;;35.46;40.69
30873;BME280;17579;42.690;2.586;2022-08-11T14:24:17;97076.84;;;35.39;40.36
30873;BME280;17579;42.690;2.586;2022-08-11T14:26:46;97070.25;;;35.26;40.67
30873;BME280;17579;42.690;2.586;2022-08-11T14:29:17;97076.47;;;35.18;41.09
30873;BME280;17579;42.690;2.586;2022-08-11T14:31:53;97068.78;;;35.06;41.42
30873;BME280;17579;42.690;2.586;2022-08-11T14:34:22;97068.94;;;34.87;41.83
30873;BME280;17579;42.690;2.586;2022-08-11T14:36:51;97063.03;;;34.66;42.13
30873;BME280;17579;42.690;2.586;2022-08-11T14:39:21;97066.06;;;34.36;42.76
30873;BME280;17579;42.690;2.586;2022-08-11T14:41:54;97066.75;;;34.14;42.96
30873;BME280;17579;42.690;2.586;2022-08-11T14:44:34;97067.75;;;34.05;43.54
30873;BME280;17579;42.690;2.586;2022-08-11T14:47:12;97063.06;;;33.91;44.02
30873;BME280;17579;42.690;2.586;2022-08-11T14:49:40;97057.34;;;33.88;44.00
30873;BME280;17579;42.690;2.586;2022-08-11T14:52:09;97063.84;;;33.78;44.12
30873;BME280;17579;42.690;2.586;2022-08-11T14:54:36;97061.09;;;33.78;44.11
30873;BME280;17579;42.690;2.586;2022-08-11T14:57:15;97061.22;;;33.67;44.42
30873;BME280;17579;42.690;2.586;2022-08-11T14:59:42;97062.78;;;33.74;44.45
30873;BME280;17579;42.690;2.586;2022-08-11T15:02:09;97055.00;;;33.81;44.49
30873;BME280;17579;42.690;2.586;2022-08-11T15:04:48;97045.44;;;33.78;44.33
30873;BME280;17579;42.690;2.586;2022-08-11T15:07:14;97047.69;;;33.57;44.53
30873;BME280;17579;42.690;2.586;2022-08-11T15:09:42;97046.81;;;33.43;45.02
30873;BME280;17579;42.690;2.586;2022-08-11T15:12:12;97045.66;;;33.30;45.10
30873;BME280;17579;42.690;2.586;2022-08-11T15:14:46;97031.28;;;33.19;45.60
30873;BME280;17579;42.690;2.586;2022-08-11T15:17:24;97038.66;;;33.19;45.65
30873;BME280;17579;42.690;2.586;2022-08-11T15:19:51;97034.25;;;33.23;45.55
30873;BME280;17579;42.690;2.586;2022-08-11T15:22:29;97036.41;;;33.26;46.03
30873;BME280;17579;42.690;2.586;2022-08-11T15:25:07;97035.59;;;33.25;45.55
30873;BME280;17579;42.690;2.586;2022-08-11T15:27:34;97038.53;;;33.10;45.74
30873;BME280;17579;42.690;2.586;2022-08-11T15:30:13;97030.31;;;33.10;46.22
30873;BME280;17579;42.690;2.586;2022-08-11T15:33:04;97036.03;;;33.13;46.04
30873;BME280;17579;42.690;2.586;2022-08-11T15:35:43;97035.81;;;33.29;45.92
30873;BME280;17579;42.690;2.586;2022-08-11T15:38:22;97026.88;;;33.23;45.81
30873;BME280;17579;42.690;2.586;2022-08-11T15:40:49;97026.69;;;33.14;46.31
30873;BME280;17579;42.690;2.586;2022-08-11T15:43:42;97030.69;;;33.03;46.11
30873;BME280;17579;42.690;2.586;2022-08-11T15:49:10;97026.03;;;33.04;46.35
30873;BME280;17579;42.690;2.586;2022-08-11T15:51:41;97018.75;;;33.13;46.42
30873;BME280;17579;42.690;2.586;2022-08-11T15:54:12;97012.88;;;33.25;46.27
30873;BME280;17579;42.690;2.586;2022-08-11T15:56:43;97014.16;;;33.27;45.99
30873;BME280;17579;42.690;2.586;2022-08-11T15:59:11;97014.16;;;33.08;46.21
30873;BME280;17579;42.690;2.586;2022-08-11T16:01:52;97014.63;;;32.96;46.29
30873;BME280;17579;42.690;2.586;2022-08-11T16:04:31;97010.25;;;32.95;46.59
30873;BME280;17579;42.690;2.586;2022-08-11T16:07:11;97015.38;;;32.83;46.35
30873;BME280;17579;42.690;2.586;2022-08-11T16:09:41;97014.09;;;32.75;46.46
30873;BME280;17579;42.690;2.586;2022-08-11T16:12:22;97013.41;;;32.64;46.82
30873;BME280;17579;42.690;2.586;2022-08-11T16:14:52;97013.69;;;32.63;46.91
30873;BME280;17579;42.690;2.586;2022-08-11T16:17:34;97012.19;;;32.52;46.85
30873;BME280;17579;42.690;2.586;2022-08-11T16:20:02;97010.56;;;32.51;47.02
30873;BME280;17579;42.690;2.586;2022-08-11T16:22:32;97010.09;;;32.43;47.25
30873;BME280;17579;42.690;2.586;2022-08-11T16:25:07;97017.84;;;32.36;46.92